createdAt,value
2018-04-06T05:58:50.384Z,40.33
2018-04-06T05:59:50.314Z,39.85
2018-04-06T06:01:43.694Z,36.76
2018-04-06T06:02:43.690Z,36.65
2018-04-06T06:04:37.118Z,36.84
2018-04-06T06:05:37.070Z,36.74
2018-04-06T06:07:31.461Z,36.65
2018-04-06T06:08:31.455Z,36.65
2018-04-06T06:16:47.266Z,37.51
2018-04-06T06:17:47.288Z,38.28
2018-04-06T06:19:40.648Z,42.13
2018-04-06T06:20:40.635Z,42.23
2018-04-06T09:10:25.296Z,38.68
2018-04-06T09:11:25.286Z,39.16
2018-04-06T09:13:19.668Z,38.87
2018-04-06T09:14:19.662Z,38.29
2018-04-06T09:16:13.064Z,38.29
2018-04-06T09:17:13.041Z,38.29
2018-04-06T09:19:06.429Z,38.10
2018-04-06T09:20:06.425Z,38.29
2018-04-06T09:21:59.817Z,38.10
2018-04-06T09:22:59.812Z,38.20
2018-04-06T09:24:53.254Z,37.91
2018-04-06T09:25:53.204Z,38.10
2018-04-06T09:27:46.595Z,38.01
2018-04-06T09:28:46.593Z,38.02
2018-04-06T09:29:46.597Z,37.91
2018-04-06T09:30:46.611Z,38.01
2018-04-06T09:31:46.671Z,37.91
2018-04-06T09:32:46.679Z,38.01
2018-04-06T09:33:46.687Z,37.91
2018-04-06T09:34:46.711Z,37.91
2018-04-06T09:35:46.702Z,38.12
2018-04-06T09:36:46.718Z,38.02
2018-04-06T09:37:46.703Z,38.02
2018-04-06T09:38:48.400Z,37.93
2018-04-06T09:39:47.024Z,37.84
2018-04-06T09:40:46.671Z,37.84
2018-04-06T09:41:46.680Z,37.93
2018-04-06T09:42:46.698Z,37.93
2018-04-06T09:43:46.672Z,37.93
2018-04-06T09:44:46.724Z,37.93
2018-04-06T09:45:46.737Z,38.12
2018-04-06T09:46:46.729Z,38.41
2018-04-06T09:47:46.681Z,38.12
2018-04-06T09:48:46.686Z,38.12
2018-04-06T09:49:46.690Z,38.32
2018-04-06T09:50:46.696Z,38.41
2018-04-06T09:51:46.701Z,38.02
2018-04-06T09:52:46.705Z,38.32
2018-04-06T09:53:46.710Z,38.12
2018-04-06T09:54:46.714Z,38.12
2018-04-06T09:55:46.737Z,38.02
2018-04-06T09:56:46.733Z,38.22
2018-04-06T09:57:46.731Z,38.12
2018-04-06T09:58:46.737Z,38.32
2018-04-06T09:59:46.742Z,38.32
2018-04-06T10:00:46.748Z,38.41
2018-04-06T10:01:47.661Z,38.60
2018-04-06T10:02:46.760Z,38.12
2018-04-06T10:03:46.766Z,37.93
2018-04-06T10:04:46.769Z,37.84
2018-04-06T10:05:47.714Z,38.02
2018-04-06T10:06:46.849Z,38.02
2018-04-06T10:07:46.787Z,37.93
2018-04-06T10:08:46.792Z,37.93
2018-04-06T10:09:46.825Z,37.95
2018-04-06T10:10:46.824Z,37.93
2018-04-06T10:11:46.830Z,38.02
2018-04-06T10:12:46.814Z,37.93
2018-04-06T10:13:46.893Z,38.02
2018-04-06T10:14:46.825Z,37.55
2018-04-06T10:15:46.838Z,37.64
2018-04-06T10:16:46.833Z,37.64
2018-04-06T10:17:46.839Z,37.45
2018-04-06T10:18:46.845Z,37.26
2018-04-06T10:19:46.850Z,37.16
2018-04-06T10:20:46.855Z,36.97
2018-04-06T10:21:46.864Z,37.07
2018-04-06T11:19:38.861Z,32.54
2018-04-06T11:20:38.807Z,33.01
2018-04-06T11:22:32.249Z,33.21
2018-04-06T11:23:32.186Z,33.40
2018-04-06T11:25:25.565Z,33.99
2018-04-06T11:26:25.561Z,33.90
2018-04-06T11:28:18.995Z,33.80
2018-04-06T11:29:18.946Z,33.98
2018-04-06T11:31:12.739Z,34.67
2018-04-06T11:32:12.348Z,35.05
2018-04-06T11:34:05.792Z,35.53
2018-04-06T11:35:05.736Z,35.72
2018-04-06T11:36:47.500Z,35.63
2018-04-06T11:37:46.465Z,35.91
2018-04-06T11:39:39.808Z,36.20
2018-04-06T11:40:40.414Z,36.30
2018-04-06T11:41:39.832Z,36.30
2018-04-06T11:42:39.850Z,36.40
2018-04-06T11:43:39.804Z,36.68
2018-04-06T11:44:39.817Z,36.70
2018-04-06T11:45:39.814Z,36.60
2018-04-06T11:46:39.837Z,36.32
2018-04-06T11:47:39.872Z,36.41
2018-04-06T11:48:39.830Z,36.32
2018-04-06T11:49:39.847Z,36.51
2018-04-06T11:50:39.854Z,36.32
2018-04-06T11:51:39.850Z,36.41
2018-04-06T11:52:39.850Z,36.51
2018-04-06T11:53:39.855Z,36.60
2018-04-06T11:54:39.862Z,36.03
2018-04-06T11:55:39.871Z,36.22
2018-04-06T11:56:39.880Z,36.22
2018-04-06T11:57:39.878Z,36.41
2018-04-06T11:58:39.888Z,36.70
2018-04-06T11:59:39.892Z,36.70
2018-04-06T12:00:39.897Z,36.70
2018-04-06T12:01:39.902Z,36.60
2018-04-06T12:02:39.910Z,36.70
2018-04-06T12:03:40.026Z,36.70
2018-04-06T12:04:39.922Z,36.70
2018-04-06T12:05:39.958Z,36.60
2018-04-06T12:06:39.957Z,36.60
2018-04-06T12:07:39.937Z,36.51
2018-04-06T12:08:39.942Z,36.41
2018-04-06T12:09:39.962Z,36.99
2018-04-06T12:10:39.958Z,36.41
2018-04-06T12:11:39.961Z,36.70
2018-04-06T12:12:39.967Z,36.70
2018-04-06T12:13:39.975Z,36.03
2018-04-06T12:14:39.981Z,36.03
2018-04-06T12:15:39.984Z,35.83
2018-04-06T12:16:39.991Z,36.13
2018-04-06T12:17:39.996Z,36.03
2018-04-06T12:18:40.004Z,35.83
2018-04-06T12:19:40.060Z,35.93
2018-04-06T12:20:40.014Z,35.93
2018-04-06T12:21:41.910Z,35.93
2018-04-06T12:22:40.030Z,35.93
2018-04-06T12:23:40.046Z,36.32
2018-04-06T12:24:40.040Z,36.99
2018-04-06T12:25:40.047Z,36.80
2018-04-06T12:26:40.052Z,36.70
2018-04-06T12:27:40.064Z,37.20
2018-04-06T12:28:40.063Z,37.59
2018-04-06T12:29:40.088Z,37.97
2018-04-06T12:30:40.103Z,38.84
2018-04-06T12:31:40.086Z,39.12
2018-04-06T12:32:40.087Z,39.70
2018-04-06T12:33:40.106Z,40.01
2018-04-06T12:34:40.099Z,40.47
2018-04-06T12:35:40.147Z,41.05
2018-04-06T12:36:40.919Z,41.26
2018-04-06T12:37:40.122Z,41.55
2018-04-06T12:38:40.125Z,41.83
2018-04-06T12:39:40.168Z,42.22
2018-04-06T12:40:40.136Z,42.50
2018-04-06T12:41:40.199Z,42.12
2018-04-06T12:42:40.157Z,42.12
2018-04-06T12:43:40.156Z,42.41
2018-04-06T12:44:40.907Z,42.41
2018-04-06T12:45:40.169Z,42.80
2018-04-06T12:46:40.191Z,43.28
2018-04-06T12:47:40.916Z,43.18
2018-04-06T12:48:40.188Z,43.18
2018-04-06T12:49:40.242Z,43.28
2018-04-06T12:50:40.200Z,43.47
2018-04-06T12:51:40.207Z,43.37
2018-04-06T12:52:40.213Z,43.47
2018-04-06T12:53:40.220Z,43.47
2018-04-06T12:54:40.227Z,43.57
2018-04-06T12:55:40.233Z,43.66
2018-04-06T12:56:40.240Z,43.85
2018-04-06T12:57:40.251Z,43.68
2018-04-06T12:58:40.259Z,43.76
2018-04-06T12:59:40.259Z,43.47
2018-04-06T13:00:40.267Z,43.18
2018-04-06T13:01:40.274Z,43.20
2018-04-06T13:02:40.290Z,43.20
2018-04-06T13:03:40.286Z,42.72
2018-04-06T13:04:40.368Z,42.82
2018-04-06T13:05:40.878Z,42.72
2018-04-06T13:06:40.378Z,42.82
2018-04-06T13:07:40.318Z,42.24
2018-04-06T13:08:40.335Z,42.14
2018-04-06T13:09:40.327Z,42.43
2018-04-06T13:10:40.334Z,42.24
2018-04-06T13:11:40.340Z,41.76
2018-04-06T13:12:40.349Z,37.32
2018-04-06T13:13:40.874Z,35.87
2018-04-06T13:14:41.367Z,35.66
2018-04-06T13:15:40.810Z,36.05
2018-04-06T13:16:40.695Z,35.76
2018-04-06T13:17:40.555Z,35.95
2018-04-06T13:18:40.494Z,36.43
2018-04-06T13:19:40.445Z,36.62
2018-04-06T13:20:40.901Z,36.43
2018-04-06T13:21:41.005Z,36.72
2018-04-06T13:22:40.447Z,36.43
2018-04-06T13:23:40.898Z,36.82
2018-04-06T13:24:41.438Z,35.85
2018-04-06T13:25:40.908Z,36.05
2018-04-06T13:26:40.830Z,36.15
2018-04-06T13:27:40.663Z,35.85
2018-04-06T13:28:40.644Z,35.57
2018-04-06T13:29:40.594Z,35.76
2018-04-06T13:30:40.481Z,35.76
2018-04-06T13:31:40.730Z,35.28
2018-04-06T13:32:40.488Z,35.18
2018-04-06T13:33:40.490Z,35.38
2018-04-06T13:34:40.494Z,34.99
2018-04-06T13:35:40.503Z,35.28
2018-04-06T13:36:40.508Z,34.99
2018-04-06T13:37:40.515Z,35.08
2018-04-06T13:38:40.557Z,34.89
2018-04-06T13:39:40.526Z,34.89
2018-04-06T13:40:40.539Z,34.61
2018-04-06T13:41:40.541Z,34.70
2018-04-06T13:42:40.612Z,34.51
2018-04-06T13:43:40.551Z,34.80
2018-04-06T13:44:40.561Z,34.89
2018-04-06T13:45:40.567Z,34.80
2018-04-06T13:46:40.575Z,34.70
2018-04-06T13:47:40.578Z,34.99
2018-04-06T13:48:40.586Z,34.51
2018-04-06T13:49:40.591Z,34.41
2018-04-06T13:50:40.608Z,34.41
2018-04-06T13:51:40.604Z,34.03
2018-04-06T13:52:40.611Z,34.41
2018-04-06T13:53:40.615Z,34.99
2018-04-06T13:54:40.625Z,34.70
2018-04-06T13:55:40.629Z,34.89
2018-04-06T13:56:40.637Z,34.80
2018-04-06T13:57:40.643Z,34.99
2018-04-06T13:58:40.656Z,34.89
2018-04-06T13:59:40.656Z,34.70
2018-04-06T14:00:40.660Z,34.61
2018-04-06T14:01:40.667Z,34.31
2018-04-06T14:02:40.679Z,34.31
2018-04-06T14:03:40.681Z,34.03
2018-04-06T14:04:40.689Z,33.64
2018-04-06T14:05:40.697Z,33.64
2018-04-06T14:06:40.702Z,33.84
2018-04-06T14:07:40.710Z,34.12
2018-04-06T14:08:40.710Z,34.51
2018-04-06T14:09:40.718Z,34.80
2018-04-06T14:10:40.726Z,34.89
2018-04-06T14:11:40.731Z,34.51
2018-04-06T14:12:40.738Z,34.31
2018-04-06T14:13:40.746Z,34.22
2018-04-06T14:14:40.750Z,34.03
2018-04-06T14:15:40.763Z,34.41
2018-04-06T15:53:38.829Z,34.49
2018-04-06T15:54:38.778Z,35.45
2018-04-06T15:56:32.155Z,34.78
2018-04-06T15:57:32.151Z,34.59
2018-04-06T15:59:25.577Z,36.70
2018-04-06T16:00:25.531Z,37.01
2018-04-06T16:02:18.911Z,37.10
2018-04-06T16:03:18.907Z,34.89
2018-04-06T16:05:13.337Z,31.80
2018-04-06T16:06:13.303Z,30.82
2018-04-06T16:08:06.676Z,30.55
2018-04-06T16:09:06.679Z,30.74
2018-04-06T16:11:01.191Z,35.95
2018-04-06T16:12:01.062Z,37.22
2018-04-06T16:13:55.567Z,46.26
2018-04-06T16:14:55.512Z,48.18
2018-04-06T16:16:49.077Z,48.66
2018-04-06T16:17:49.041Z,47.89
2018-04-06T16:19:42.474Z,47.61
2018-04-06T16:20:43.444Z,48.38
2018-04-06T16:22:36.818Z,48.76
2018-04-06T16:23:36.867Z,55.23
2018-04-06T16:25:31.259Z,63.41
2018-04-06T16:26:31.265Z,61.29
2018-04-06T16:28:24.681Z,70.37
2018-04-06T16:29:24.682Z,65.08
2018-04-06T16:31:18.131Z,59.27
2018-04-06T16:32:18.061Z,57.45
2018-04-06T16:34:12.534Z,28.82
2018-04-06T16:35:12.981Z,26.50
2018-04-06T16:37:06.915Z,28.91
2018-04-06T16:38:06.888Z,27.27
2018-04-06T16:40:00.280Z,27.84
2018-04-06T20:08:43.946Z,28.19
2018-04-06T20:09:43.893Z,28.19
2018-04-06T20:11:37.315Z,28.77
2018-04-06T20:12:37.266Z,29.05
2018-04-06T20:14:31.693Z,29.16
2018-04-06T20:15:31.669Z,29.05
